sensor_id;sensor_type;location;lat;lon;timestamp;P1;durP1;ratioP1;P2;durP2;ratioP2
32297;SDS011;18782;48.984;8.548;2022-08-01T00:00:47;1.88;;;1.42;;
32297;SDS011;18782;48.984;8.548;2022-08-01T00:03:15;4.95;;;1.63;;
32297;SDS011;18782;48.984;8.548;2022-08-01T00:05:42;3.67;;;1.10;;
32297;SDS011;18782;48.984;8.548;2022-08-01T00:08:11;1.70;;;1.23;;
32297;SDS011;18782;48.984;8.548;2022-08-01T00:10:40;3.33;;;1.70;;
32297;SDS011;18782;48.984;8.548;2022-08-01T00:13:08;1.85;;;1.55;;
32297;SDS011;18782;48.984;8.548;2022-08-01T00:15:35;2.13;;;1.30;;
32297;SDS011;18782;48.984;8.548;2022-08-01T00:18:03;3.03;;;1.60;;
32297;SDS011;18782;48.984;8.548;2022-08-01T00:20:31;2.97;;;1.70;;
32297;SDS011;18782;48.984;8.548;2022-08-01T00:22:59;2.95;;;1.40;;
32297;SDS011;18782;48.984;8.548;2022-08-01T00:25:29;2.03;;;1.40;;
32297;SDS011;18782;48.984;8.548;2022-08-01T00:28:01;2.20;;;1.50;;
32297;SDS011;18782;48.984;8.548;2022-08-01T00:30:29;3.67;;;1.33;;
32297;SDS011;18782;48.984;8.548;2022-08-01T00:32:57;2.00;;;1.42;;
32297;SDS011;18782;48.984;8.548;2022-08-01T00:35:25;1.88;;;1.60;;
32297;SDS011;18782;48.984;8.548;2022-08-01T00:37:52;1.45;;;1.25;;
32297;SDS011;18782;48.984;8.548;2022-08-01T00:40:20;2.30;;;1.60;;
32297;SDS011;18782;48.984;8.548;2022-08-01T00:42:48;1.85;;;1.50;;
32297;SDS011;18782;48.984;8.548;2022-08-01T00:45:17;1.83;;;1.60;;
32297;SDS011;18782;48.984;8.548;2022-08-01T00:47:45;1.92;;;1.20;;
32297;SDS011;18782;48.984;8.548;2022-08-01T00:50:20;2.33;;;1.60;;
32297;SDS011;18782;48.984;8.548;2022-08-01T00:52:50;2.08;;;1.50;;
32297;SDS011;18782;48.984;8.548;2022-08-01T00:55:19;2.17;;;1.40;;
32297;SDS011;18782;48.984;8.548;2022-08-01T01:00:34;1.83;;;1.50;;
32297;SDS011;18782;48.984;8.548;2022-08-01T01:03:19;2.22;;;1.42;;
32297;SDS011;18782;48.984;8.548;2022-08-01T01:06:01;1.60;;;1.30;;
32297;SDS011;18782;48.984;8.548;2022-08-01T01:08:39;3.08;;;1.38;;
32297;SDS011;18782;48.984;8.548;2022-08-01T01:11:12;1.60;;;1.30;;
32297;SDS011;18782;48.984;8.548;2022-08-01T01:13:46;1.90;;;1.35;;
32297;SDS011;18782;48.984;8.548;2022-08-01T01:16:20;2.33;;;1.55;;
32297;SDS011;18782;48.984;8.548;2022-08-01T01:18:51;4.00;;;1.65;;
32297;SDS011;18782;48.984;8.548;2022-08-01T01:21:27;3.47;;;1.38;;
32297;SDS011;18782;48.984;8.548;2022-08-01T01:24:14;2.75;;;1.52;;
32297;SDS011;18782;48.984;8.548;2022-08-01T01:26:50;2.88;;;1.58;;
32297;SDS011;18782;48.984;8.548;2022-08-01T01:29:27;2.60;;;1.40;;
32297;SDS011;18782;48.984;8.548;2022-08-01T01:32:20;2.03;;;1.35;;
32297;SDS011;18782;48.984;8.548;2022-08-01T01:34:56;1.98;;;1.60;;
32297;SDS011;18782;48.984;8.548;2022-08-01T01:37:25;2.10;;;1.33;;
32297;SDS011;18782;48.984;8.548;2022-08-01T01:39:57;2.10;;;1.55;;
32297;SDS011;18782;48.984;8.548;2022-08-01T01:42:26;3.25;;;1.67;;
32297;SDS011;18782;48.984;8.548;2022-08-01T01:44:56;2.08;;;1.50;;
32297;SDS011;18782;48.984;8.548;2022-08-01T01:47:25;1.95;;;1.38;;
32297;SDS011;18782;48.984;8.548;2022-08-01T01:49:54;2.40;;;1.67;;
32297;SDS011;18782;48.984;8.548;2022-08-01T01:52:24;2.08;;;1.42;;
32297;SDS011;18782;48.984;8.548;2022-08-01T01:54:55;2.65;;;1.90;;
32297;SDS011;18782;48.984;8.548;2022-08-01T01:57:24;2.38;;;1.42;;
32297;SDS011;18782;48.984;8.548;2022-08-01T01:59:52;3.78;;;1.40;;
32297;SDS011;18782;48.984;8.548;2022-08-01T02:02:22;1.83;;;1.33;;
32297;SDS011;18782;48.984;8.548;2022-08-01T02:04:51;2.88;;;2.03;;
32297;SDS011;18782;48.984;8.548;2022-08-01T02:07:22;3.65;;;2.47;;
32297;SDS011;18782;48.984;8.548;2022-08-01T02:09:52;3.50;;;2.30;;
32297;SDS011;18782;48.984;8.548;2022-08-01T02:12:21;2.50;;;1.60;;
32297;SDS011;18782;48.984;8.548;2022-08-01T02:14:52;2.63;;;1.77;;
32297;SDS011;18782;48.984;8.548;2022-08-01T02:17:23;2.25;;;1.50;;
32297;SDS011;18782;48.984;8.548;2022-08-01T02:19:52;2.38;;;1.83;;
32297;SDS011;18782;48.984;8.548;2022-08-01T02:22:21;1.52;;;1.30;;
32297;SDS011;18782;48.984;8.548;2022-08-01T02:24:55;3.45;;;1.70;;
32297;SDS011;18782;48.984;8.548;2022-08-01T02:27:28;2.50;;;1.70;;
32297;SDS011;18782;48.984;8.548;2022-08-01T02:30:02;2.58;;;1.85;;
32297;SDS011;18782;48.984;8.548;2022-08-01T02:32:34;2.30;;;1.60;;
32297;SDS011;18782;48.984;8.548;2022-08-01T02:35:06;1.90;;;1.48;;
32297;SDS011;18782;48.984;8.548;2022-08-01T02:37:37;1.98;;;1.52;;
32297;SDS011;18782;48.984;8.548;2022-08-01T02:40:10;3.85;;;1.90;;
32297;SDS011;18782;48.984;8.548;2022-08-01T02:42:41;2.08;;;1.65;;
32297;SDS011;18782;48.984;8.548;2022-08-01T02:45:12;2.38;;;1.60;;
32297;SDS011;18782;48.984;8.548;2022-08-01T02:47:42;4.97;;;1.92;;
32297;SDS011;18782;48.984;8.548;2022-08-01T02:50:12;2.47;;;1.60;;
32297;SDS011;18782;48.984;8.548;2022-08-01T02:52:42;2.20;;;1.70;;
32297;SDS011;18782;48.984;8.548;2022-08-01T02:55:13;2.30;;;1.50;;
32297;SDS011;18782;48.984;8.548;2022-08-01T02:57:41;2.97;;;1.65;;
32297;SDS011;18782;48.984;8.548;2022-08-01T03:00:18;2.78;;;1.45;;
32297;SDS011;18782;48.984;8.548;2022-08-01T03:02:51;2.55;;;1.67;;
32297;SDS011;18782;48.984;8.548;2022-08-01T03:05:21;4.05;;;1.83;;
32297;SDS011;18782;48.984;8.548;2022-08-01T03:07:51;2.17;;;1.77;;
32297;SDS011;18782;48.984;8.548;2022-08-01T03:10:20;3.15;;;1.85;;
32297;SDS011;18782;48.984;8.548;2022-08-01T03:12:48;2.85;;;1.83;;
32297;SDS011;18782;48.984;8.548;2022-08-01T03:15:17;3.85;;;2.15;;
32297;SDS011;18782;48.984;8.548;2022-08-01T03:17:46;2.72;;;1.88;;
32297;SDS011;18782;48.984;8.548;2022-08-01T03:20:18;2.33;;;1.73;;
32297;SDS011;18782;48.984;8.548;2022-08-01T03:22:51;4.38;;;1.75;;
32297;SDS011;18782;48.984;8.548;2022-08-01T03:27:54;2.50;;;1.77;;
32297;SDS011;18782;48.984;8.548;2022-08-01T03:30:23;2.80;;;1.65;;
32297;SDS011;18782;48.984;8.548;2022-08-01T03:32:53;2.28;;;1.67;;
32297;SDS011;18782;48.984;8.548;2022-08-01T03:35:23;2.53;;;1.88;;
32297;SDS011;18782;48.984;8.548;2022-08-01T03:37:54;2.90;;;1.73;;
32297;SDS011;18782;48.984;8.548;2022-08-01T03:40:43;2.22;;;1.67;;
32297;SDS011;18782;48.984;8.548;2022-08-01T03:43:16;3.97;;;1.90;;
32297;SDS011;18782;48.984;8.548;2022-08-01T03:45:49;3.47;;;2.00;;
32297;SDS011;18782;48.984;8.548;2022-08-01T03:48:19;4.30;;;2.53;;
32297;SDS011;18782;48.984;8.548;2022-08-01T03:50:56;3.65;;;2.83;;
32297;SDS011;18782;48.984;8.548;2022-08-01T03:53:28;2.17;;;1.63;;
32297;SDS011;18782;48.984;8.548;2022-08-01T03:55:59;2.90;;;2.08;;
32297;SDS011;18782;48.984;8.548;2022-08-01T03:58:29;2.65;;;1.80;;
32297;SDS011;18782;48.984;8.548;2022-08-01T04:00:58;2.40;;;1.90;;
32297;SDS011;18782;48.984;8.548;2022-08-01T04:03:26;2.90;;;1.90;;
32297;SDS011;18782;48.984;8.548;2022-08-01T04:05:54;2.20;;;1.83;;
32297;SDS011;18782;48.984;8.548;2022-08-01T04:08:33;2.35;;;2.03;;
32297;SDS011;18782;48.984;8.548;2022-08-01T04:11:01;3.97;;;1.95;;
32297;SDS011;18782;48.984;8.548;2022-08-01T04:13:29;2.95;;;2.15;;
32297;SDS011;18782;48.984;8.548;2022-08-01T04:16:02;2.88;;;2.20;;
32297;SDS011;18782;48.984;8.548;2022-08-01T04:18:30;3.85;;;2.33;;
32297;SDS011;18782;48.984;8.548;2022-08-01T04:20:59;2.53;;;2.05;;
32297;SDS011;18782;48.984;8.548;2022-08-01T04:23:27;3.65;;;2.08;;
32297;SDS011;18782;48.984;8.548;2022-08-01T04:25:58;2.80;;;2.10;;
32297;SDS011;18782;48.984;8.548;2022-08-01T04:28:28;3.10;;;2.20;;
32297;SDS011;18782;48.984;8.548;2022-08-01T04:30:57;3.67;;;2.40;;
32297;SDS011;18782;48.984;8.548;2022-08-01T04:33:28;3.42;;;2.28;;
32297;SDS011;18782;48.984;8.548;2022-08-01T04:35:57;2.78;;;2.28;;
32297;SDS011;18782;48.984;8.548;2022-08-01T04:38:31;3.08;;;2.10;;
32297;SDS011;18782;48.984;8.548;2022-08-01T04:41:02;4.18;;;2.22;;
32297;SDS011;18782;48.984;8.548;2022-08-01T04:43:35;3.25;;;2.33;;
32297;SDS011;18782;48.984;8.548;2022-08-01T04:46:03;2.45;;;2.10;;
32297;SDS011;18782;48.984;8.548;2022-08-01T04:48:33;3.33;;;2.78;;
32297;SDS011;18782;48.984;8.548;2022-08-01T04:51:04;5.68;;;2.70;;
32297;SDS011;18782;48.984;8.548;2022-08-01T04:53:39;3.38;;;2.47;;
32297;SDS011;18782;48.984;8.548;2022-08-01T04:56:07;4.55;;;2.50;;
32297;SDS011;18782;48.984;8.548;2022-08-01T04:58:35;3.85;;;2.53;;
32297;SDS011;18782;48.984;8.548;2022-08-01T05:01:02;8.43;;;2.78;;
32297;SDS011;18782;48.984;8.548;2022-08-01T05:03:30;4.82;;;2.55;;
32297;SDS011;18782;48.984;8.548;2022-08-01T05:06:05;3.25;;;2.35;;
32297;SDS011;18782;48.984;8.548;2022-08-01T05:08:33;3.83;;;2.45;;
32297;SDS011;18782;48.984;8.548;2022-08-01T05:11:02;5.32;;;3.15;;
32297;SDS011;18782;48.984;8.548;2022-08-01T05:13:29;4.43;;;2.50;;
32297;SDS011;18782;48.984;8.548;2022-08-01T05:15:57;3.85;;;3.10;;
32297;SDS011;18782;48.984;8.548;2022-08-01T05:18:25;2.50;;;2.08;;
32297;SDS011;18782;48.984;8.548;2022-08-01T05:20:53;3.60;;;2.20;;
32297;SDS011;18782;48.984;8.548;2022-08-01T05:23:23;3.13;;;2.20;;
32297;SDS011;18782;48.984;8.548;2022-08-01T05:26:08;2.78;;;2.10;;
32297;SDS011;18782;48.984;8.548;2022-08-01T05:28:40;5.28;;;2.10;;
32297;SDS011;18782;48.984;8.548;2022-08-01T05:31:07;6.57;;;2.33;;
32297;SDS011;18782;48.984;8.548;2022-08-01T05:33:35;3.13;;;1.75;;
32297;SDS011;18782;48.984;8.548;2022-08-01T05:36:03;2.88;;;1.80;;
32297;SDS011;18782;48.984;8.548;2022-08-01T05:38:32;2.50;;;1.75;;
32297;SDS011;18782;48.984;8.548;2022-08-01T05:41:00;3.90;;;2.30;;
32297;SDS011;18782;48.984;8.548;2022-08-01T05:43:28;6.30;;;2.08;;
32297;SDS011;18782;48.984;8.548;2022-08-01T05:45:56;4.68;;;2.33;;
32297;SDS011;18782;48.984;8.548;2022-08-01T05:48:24;4.55;;;1.90;;
32297;SDS011;18782;48.984;8.548;2022-08-01T05:50:52;3.28;;;1.88;;
32297;SDS011;18782;48.984;8.548;2022-08-01T05:53:24;3.15;;;1.60;;
32297;SDS011;18782;48.984;8.548;2022-08-01T05:55:53;3.75;;;1.50;;
32297;SDS011;18782;48.984;8.548;2022-08-01T05:58:21;2.10;;;1.35;;
32297;SDS011;18782;48.984;8.548;2022-08-01T06:00:49;3.58;;;1.83;;
32297;SDS011;18782;48.984;8.548;2022-08-01T06:03:17;2.72;;;1.63;;
32297;SDS011;18782;48.984;8.548;2022-08-01T06:05:45;2.00;;;1.50;;
32297;SDS011;18782;48.984;8.548;2022-08-01T06:08:13;2.33;;;1.35;;
32297;SDS011;18782;48.984;8.548;2022-08-01T06:10:40;1.75;;;1.40;;
32297;SDS011;18782;48.984;8.548;2022-08-01T06:13:10;2.80;;;1.50;;
32297;SDS011;18782;48.984;8.548;2022-08-01T06:15:37;2.05;;;1.50;;
32297;SDS011;18782;48.984;8.548;2022-08-01T06:18:05;3.47;;;1.45;;
32297;SDS011;18782;48.984;8.548;2022-08-01T06:20:33;2.28;;;1.52;;
32297;SDS011;18782;48.984;8.548;2022-08-01T06:23:01;2.40;;;1.63;;
32297;SDS011;18782;48.984;8.548;2022-08-01T06:25:51;4.30;;;1.90;;
32297;SDS011;18782;48.984;8.548;2022-08-01T06:28:21;2.30;;;1.65;;
32297;SDS011;18782;48.984;8.548;2022-08-01T06:30:48;3.42;;;1.42;;
32297;SDS011;18782;48.984;8.548;2022-08-01T06:33:16;2.33;;;1.67;;
32297;SDS011;18782;48.984;8.548;2022-08-01T06:35:44;3.38;;;2.00;;
32297;SDS011;18782;48.984;8.548;2022-08-01T06:38:11;1.98;;;1.60;;
32297;SDS011;18782;48.984;8.548;2022-08-01T06:40:39;1.95;;;1.42;;
32297;SDS011;18782;48.984;8.548;2022-08-01T06:43:07;2.00;;;1.40;;
32297;SDS011;18782;48.984;8.548;2022-08-01T06:45:36;2.80;;;1.63;;
32297;SDS011;18782;48.984;8.548;2022-08-01T06:48:03;2.75;;;1.63;;
32297;SDS011;18782;48.984;8.548;2022-08-01T06:50:32;3.28;;;1.70;;
32297;SDS011;18782;48.984;8.548;2022-08-01T06:53:01;3.65;;;1.50;;
32297;SDS011;18782;48.984;8.548;2022-08-01T06:55:29;3.85;;;1.67;;
32297;SDS011;18782;48.984;8.548;2022-08-01T06:57:57;2.58;;;1.45;;
32297;SDS011;18782;48.984;8.548;2022-08-01T07:00:25;2.92;;;1.42;;
32297;SDS011;18782;48.984;8.548;2022-08-01T07:02:55;5.35;;;1.70;;
32297;SDS011;18782;48.984;8.548;2022-08-01T07:05:24;2.25;;;1.58;;
32297;SDS011;18782;48.984;8.548;2022-08-01T07:07:52;2.83;;;2.00;;
32297;SDS011;18782;48.984;8.548;2022-08-01T07:10:20;2.63;;;1.88;;
32297;SDS011;18782;48.984;8.548;2022-08-01T07:12:48;6.00;;;3.30;;
32297;SDS011;18782;48.984;8.548;2022-08-01T07:15:16;5.93;;;4.05;;
32297;SDS011;18782;48.984;8.548;2022-08-01T07:17:44;3.65;;;3.08;;
32297;SDS011;18782;48.984;8.548;2022-08-01T07:20:13;6.50;;;3.60;;
32297;SDS011;18782;48.984;8.548;2022-08-01T07:22:42;4.05;;;3.00;;
32297;SDS011;18782;48.984;8.548;2022-08-01T07:25:13;3.47;;;2.97;;
32297;SDS011;18782;48.984;8.548;2022-08-01T07:27:41;3.78;;;2.92;;
32297;SDS011;18782;48.984;8.548;2022-08-01T07:30:09;4.00;;;2.90;;
32297;SDS011;18782;48.984;8.548;2022-08-01T07:32:37;2.65;;;2.40;;
32297;SDS011;18782;48.984;8.548;2022-08-01T07:35:05;2.17;;;1.95;;
32297;SDS011;18782;48.984;8.548;2022-08-01T07:37:35;2.67;;;1.90;;
32297;SDS011;18782;48.984;8.548;2022-08-01T07:40:14;5.47;;;2.17;;
32297;SDS011;18782;48.984;8.548;2022-08-01T07:42:43;2.53;;;1.92;;
32297;SDS011;18782;48.984;8.548;2022-08-01T07:45:11;4.55;;;1.65;;
32297;SDS011;18782;48.984;8.548;2022-08-01T07:47:39;1.95;;;1.52;;
32297;SDS011;18782;48.984;8.548;2022-08-01T07:50:07;2.65;;;1.52;;
32297;SDS011;18782;48.984;8.548;2022-08-01T07:52:37;2.10;;;1.63;;
32297;SDS011;18782;48.984;8.548;2022-08-01T07:55:05;3.13;;;1.48;;
32297;SDS011;18782;48.984;8.548;2022-08-01T07:57:34;2.53;;;1.38;;
32297;SDS011;18782;48.984;8.548;2022-08-01T08:00:02;3.13;;;1.45;;
32297;SDS011;18782;48.984;8.548;2022-08-01T08:02:31;1.92;;;1.50;;
32297;SDS011;18782;48.984;8.548;2022-08-01T08:04:59;1.45;;;1.13;;
32297;SDS011;18782;48.984;8.548;2022-08-01T08:07:27;2.70;;;1.30;;
32297;SDS011;18782;48.984;8.548;2022-08-01T08:09:56;1.65;;;1.15;;
32297;SDS011;18782;48.984;8.548;2022-08-01T08:12:24;3.80;;;1.20;;
32297;SDS011;18782;48.984;8.548;2022-08-01T08:14:55;3.10;;;1.25;;
32297;SDS011;18782;48.984;8.548;2022-08-01T08:17:24;2.95;;;1.30;;
32297;SDS011;18782;48.984;8.548;2022-08-01T08:19:52;2.00;;;1.20;;
32297;SDS011;18782;48.984;8.548;2022-08-01T08:22:19;2.50;;;1.75;;
32297;SDS011;18782;48.984;8.548;2022-08-01T08:24:47;2.38;;;1.23;;
32297;SDS011;18782;48.984;8.548;2022-08-01T08:27:16;2.47;;;1.23;;
32297;SDS011;18782;48.984;8.548;2022-08-01T08:29:44;5.10;;;1.70;;
32297;SDS011;18782;48.984;8.548;2022-08-01T08:32:12;3.65;;;1.30;;
32297;SDS011;18782;48.984;8.548;2022-08-01T08:34:39;2.35;;;1.30;;
32297;SDS011;18782;48.984;8.548;2022-08-01T08:37:08;2.40;;;1.50;;
32297;SDS011;18782;48.984;8.548;2022-08-01T08:39:36;4.20;;;1.27;;
32297;SDS011;18782;48.984;8.548;2022-08-01T08:42:08;1.63;;;1.20;;
32297;SDS011;18782;48.984;8.548;2022-08-01T08:44:40;2.85;;;1.10;;
32297;SDS011;18782;48.984;8.548;2022-08-01T08:47:10;2.72;;;1.05;;
32297;SDS011;18782;48.984;8.548;2022-08-01T08:49:45;1.90;;;0.90;;
32297;SDS011;18782;48.984;8.548;2022-08-01T08:52:14;4.07;;;1.33;;
32297;SDS011;18782;48.984;8.548;2022-08-01T08:54:44;5.88;;;1.45;;
32297;SDS011;18782;48.984;8.548;2022-08-01T08:57:13;1.95;;;1.02;;
32297;SDS011;18782;48.984;8.548;2022-08-01T08:59:43;3.13;;;0.90;;
32297;SDS011;18782;48.984;8.548;2022-08-01T09:02:11;2.55;;;1.20;;
32297;SDS011;18782;48.984;8.548;2022-08-01T09:04:40;3.90;;;1.48;;
32297;SDS011;18782;48.984;8.548;2022-08-01T09:07:08;2.20;;;1.20;;
32297;SDS011;18782;48.984;8.548;2022-08-01T09:09:37;1.50;;;1.00;;
32297;SDS011;18782;48.984;8.548;2022-08-01T09:12:07;3.45;;;0.98;;
32297;SDS011;18782;48.984;8.548;2022-08-01T09:14:36;1.77;;;0.90;;
32297;SDS011;18782;48.984;8.548;2022-08-01T09:17:13;1.92;;;1.27;;
32297;SDS011;18782;48.984;8.548;2022-08-01T09:19:42;3.13;;;1.30;;
32297;SDS011;18782;48.984;8.548;2022-08-01T09:22:14;1.63;;;1.00;;
32297;SDS011;18782;48.984;8.548;2022-08-01T09:24:56;1.75;;;1.30;;
32297;SDS011;18782;48.984;8.548;2022-08-01T09:27:25;1.70;;;0.90;;
32297;SDS011;18782;48.984;8.548;2022-08-01T09:29:54;1.10;;;0.80;;
32297;SDS011;18782;48.984;8.548;2022-08-01T09:32:36;1.33;;;1.05;;
32297;SDS011;18782;48.984;8.548;2022-08-01T09:35:22;1.52;;;1.00;;
32297;SDS011;18782;48.984;8.548;2022-08-01T09:38:16;1.70;;;1.20;;
32297;SDS011;18782;48.984;8.548;2022-08-01T09:40:48;1.42;;;0.90;;
32297;SDS011;18782;48.984;8.548;2022-08-01T09:43:19;1.95;;;1.08;;
32297;SDS011;18782;48.984;8.548;2022-08-01T09:45:53;1.88;;;0.75;;
32297;SDS011;18782;48.984;8.548;2022-08-01T09:48:23;1.88;;;1.20;;
32297;SDS011;18782;48.984;8.548;2022-08-01T09:50:55;1.50;;;0.80;;
32297;SDS011;18782;48.984;8.548;2022-08-01T09:53:42;2.25;;;1.20;;
32297;SDS011;18782;48.984;8.548;2022-08-01T09:56:18;2.22;;;1.20;;
32297;SDS011;18782;48.984;8.548;2022-08-01T09:58:50;1.92;;;1.10;;
32297;SDS011;18782;48.984;8.548;2022-08-01T10:01:26;2.50;;;1.08;;
32297;SDS011;18782;48.984;8.548;2022-08-01T10:04:08;1.85;;;0.90;;
32297;SDS011;18782;48.984;8.548;2022-08-01T10:06:38;1.10;;;0.88;;
32297;SDS011;18782;48.984;8.548;2022-08-01T10:09:08;2.72;;;0.95;;
32297;SDS011;18782;48.984;8.548;2022-08-01T10:11:37;2.03;;;0.93;;
32297;SDS011;18782;48.984;8.548;2022-08-01T10:14:06;2.25;;;1.08;;
32297;SDS011;18782;48.984;8.548;2022-08-01T10:16:36;3.33;;;1.25;;
32297;SDS011;18782;48.984;8.548;2022-08-01T10:19:05;2.83;;;1.10;;
32297;SDS011;18782;48.984;8.548;2022-08-01T10:21:41;1.25;;;1.13;;
32297;SDS011;18782;48.984;8.548;2022-08-01T10:24:25;2.55;;;1.70;;
32297;SDS011;18782;48.984;8.548;2022-08-01T10:26:55;2.53;;;1.35;;
32297;SDS011;18782;48.984;8.548;2022-08-01T10:29:31;3.92;;;1.70;;
32297;SDS011;18782;48.984;8.548;2022-08-01T10:32:26;2.45;;;1.50;;
32297;SDS011;18782;48.984;8.548;2022-08-01T10:34:54;2.42;;;1.58;;
32297;SDS011;18782;48.984;8.548;2022-08-01T10:37:22;6.63;;;1.90;;
32297;SDS011;18782;48.984;8.548;2022-08-01T10:39:52;2.83;;;1.85;;
32297;SDS011;18782;48.984;8.548;2022-08-01T10:42:41;4.32;;;1.80;;
32297;SDS011;18782;48.984;8.548;2022-08-01T10:45:10;1.35;;;1.10;;
32297;SDS011;18782;48.984;8.548;2022-08-01T10:47:42;1.70;;;1.55;;
32297;SDS011;18782;48.984;8.548;2022-08-01T10:50:17;2.60;;;1.95;;
32297;SDS011;18782;48.984;8.548;2022-08-01T10:53:08;2.50;;;1.75;;
32297;SDS011;18782;48.984;8.548;2022-08-01T10:55:49;3.30;;;3.00;;
32297;SDS011;18782;48.984;8.548;2022-08-01T10:58:24;3.97;;;2.95;;
32297;SDS011;18782;48.984;8.548;2022-08-01T11:01:15;4.82;;;3.60;;
32297;SDS011;18782;48.984;8.548;2022-08-01T11:03:57;3.45;;;2.50;;
32297;SDS011;18782;48.984;8.548;2022-08-01T11:06:35;4.72;;;2.05;;
32297;SDS011;18782;48.984;8.548;2022-08-01T11:09:15;3.22;;;1.90;;
32297;SDS011;18782;48.984;8.548;2022-08-01T11:12:03;2.80;;;1.33;;
32297;SDS011;18782;48.984;8.548;2022-08-01T11:17:56;4.22;;;2.20;;
32297;SDS011;18782;48.984;8.548;2022-08-01T11:20:31;3.92;;;1.00;;
32297;SDS011;18782;48.984;8.548;2022-08-01T11:26:10;3.22;;;1.45;;
32297;SDS011;18782;48.984;8.548;2022-08-01T11:28:43;1.95;;;1.17;;
32297;SDS011;18782;48.984;8.548;2022-08-01T11:31:32;2.28;;;1.63;;
32297;SDS011;18782;48.984;8.548;2022-08-01T11:34:03;2.00;;;1.50;;
32297;SDS011;18782;48.984;8.548;2022-08-01T11:36:33;3.22;;;1.73;;
32297;SDS011;18782;48.984;8.548;2022-08-01T11:39:20;2.35;;;1.75;;
32297;SDS011;18782;48.984;8.548;2022-08-01T11:41:49;3.97;;;2.30;;
32297;SDS011;18782;48.984;8.548;2022-08-01T11:44:19;4.15;;;3.75;;
32297;SDS011;18782;48.984;8.548;2022-08-01T11:46:58;4.07;;;2.60;;
32297;SDS011;18782;48.984;8.548;2022-08-01T11:49:45;3.38;;;1.90;;
32297;SDS011;18782;48.984;8.548;2022-08-01T11:52:18;2.13;;;1.60;;
32297;SDS011;18782;48.984;8.548;2022-08-01T11:54:51;1.95;;;1.30;;
32297;SDS011;18782;48.984;8.548;2022-08-01T11:57:21;1.83;;;0.80;;
32297;SDS011;18782;48.984;8.548;2022-08-01T11:59:59;2.30;;;1.00;;
32297;SDS011;18782;48.984;8.548;2022-08-01T12:02:40;1.15;;;0.90;;
32297;SDS011;18782;48.984;8.548;2022-08-01T12:05:11;3.35;;;1.15;;
32297;SDS011;18782;48.984;8.548;2022-08-01T12:07:42;1.40;;;1.00;;
32297;SDS011;18782;48.984;8.548;2022-08-01T12:10:11;5.47;;;0.95;;
32297;SDS011;18782;48.984;8.548;2022-08-01T12:12:42;3.25;;;1.13;;
32297;SDS011;18782;48.984;8.548;2022-08-01T12:15:11;2.95;;;1.20;;
32297;SDS011;18782;48.984;8.548;2022-08-01T12:17:40;2.95;;;1.42;;
32297;SDS011;18782;48.984;8.548;2022-08-01T12:20:23;3.65;;;1.10;;
32297;SDS011;18782;48.984;8.548;2022-08-01T12:22:57;1.55;;;1.00;;
32297;SDS011;18782;48.984;8.548;2022-08-01T12:25:27;2.00;;;1.00;;
32297;SDS011;18782;48.984;8.548;2022-08-01T12:27:58;1.00;;;0.90;;
32297;SDS011;18782;48.984;8.548;2022-08-01T12:30:27;2.38;;;1.05;;
32297;SDS011;18782;48.984;8.548;2022-08-01T12:32:56;2.22;;;1.30;;
32297;SDS011;18782;48.984;8.548;2022-08-01T12:35:25;3.05;;;1.42;;
32297;SDS011;18782;48.984;8.548;2022-08-01T12:37:54;2.30;;;1.77;;
32297;SDS011;18782;48.984;8.548;2022-08-01T12:40:24;2.58;;;1.60;;
32297;SDS011;18782;48.984;8.548;2022-08-01T12:42:54;6.63;;;1.63;;
32297;SDS011;18782;48.984;8.548;2022-08-01T12:45:23;1.67;;;1.20;;
32297;SDS011;18782;48.984;8.548;2022-08-01T12:47:52;1.73;;;0.93;;
32297;SDS011;18782;48.984;8.548;2022-08-01T12:50:22;3.00;;;1.13;;
32297;SDS011;18782;48.984;8.548;2022-08-01T12:52:51;2.33;;;1.00;;
32297;SDS011;18782;48.984;8.548;2022-08-01T12:55:20;4.75;;;1.08;;
32297;SDS011;18782;48.984;8.548;2022-08-01T12:58:09;1.55;;;1.02;;
32297;SDS011;18782;48.984;8.548;2022-08-01T13:00:42;2.17;;;0.80;;
32297;SDS011;18782;48.984;8.548;2022-08-01T13:03:11;1.23;;;0.80;;
32297;SDS011;18782;48.984;8.548;2022-08-01T13:05:41;1.13;;;0.80;;
32297;SDS011;18782;48.984;8.548;2022-08-01T13:08:10;1.27;;;0.95;;
32297;SDS011;18782;48.984;8.548;2022-08-01T13:10:39;1.60;;;0.70;;
32297;SDS011;18782;48.984;8.548;2022-08-01T13:13:09;1.15;;;0.60;;
32297;SDS011;18782;48.984;8.548;2022-08-01T13:16:02;1.35;;;0.85;;
32297;SDS011;18782;48.984;8.548;2022-08-01T13:18:32;1.38;;;0.80;;
32297;SDS011;18782;48.984;8.548;2022-08-01T13:21:07;1.25;;;0.77;;
32297;SDS011;18782;48.984;8.548;2022-08-01T13:23:36;2.35;;;0.88;;
32297;SDS011;18782;48.984;8.548;2022-08-01T13:26:36;1.10;;;0.70;;
32297;SDS011;18782;48.984;8.548;2022-08-01T13:29:06;1.73;;;0.70;;
32297;SDS011;18782;48.984;8.548;2022-08-01T13:31:35;1.35;;;0.80;;
32297;SDS011;18782;48.984;8.548;2022-08-01T13:34:04;2.03;;;0.60;;
32297;SDS011;18782;48.984;8.548;2022-08-01T13:36:33;0.95;;;0.60;;
32297;SDS011;18782;48.984;8.548;2022-08-01T13:39:02;2.45;;;0.77;;
32297;SDS011;18782;48.984;8.548;2022-08-01T13:41:48;1.00;;;0.60;;
32297;SDS011;18782;48.984;8.548;2022-08-01T13:44:17;2.35;;;0.70;;
32297;SDS011;18782;48.984;8.548;2022-08-01T13:46:45;2.40;;;0.80;;
32297;SDS011;18782;48.984;8.548;2022-08-01T13:49:16;3.63;;;0.90;;
32297;SDS011;18782;48.984;8.548;2022-08-01T13:51:45;2.15;;;0.80;;
32297;SDS011;18782;48.984;8.548;2022-08-01T13:54:13;1.33;;;0.73;;
32297;SDS011;18782;48.984;8.548;2022-08-01T13:56:40;1.23;;;0.95;;
32297;SDS011;18782;48.984;8.548;2022-08-01T13:59:08;1.13;;;0.50;;
32297;SDS011;18782;48.984;8.548;2022-08-01T14:01:37;1.98;;;0.65;;
32297;SDS011;18782;48.984;8.548;2022-08-01T14:04:05;1.02;;;0.60;;
32297;SDS011;18782;48.984;8.548;2022-08-01T14:06:34;2.50;;;0.65;;
32297;SDS011;18782;48.984;8.548;2022-08-01T14:09:02;2.72;;;0.73;;
32297;SDS011;18782;48.984;8.548;2022-08-01T14:11:43;1.40;;;0.60;;
32297;SDS011;18782;48.984;8.548;2022-08-01T14:14:11;1.23;;;0.50;;
32297;SDS011;18782;48.984;8.548;2022-08-01T14:16:41;1.27;;;0.70;;
32297;SDS011;18782;48.984;8.548;2022-08-01T14:19:10;1.42;;;0.60;;
32297;SDS011;18782;48.984;8.548;2022-08-01T14:21:38;1.10;;;0.60;;
32297;SDS011;18782;48.984;8.548;2022-08-01T14:24:06;0.73;;;0.63;;
32297;SDS011;18782;48.984;8.548;2022-08-01T14:26:35;1.42;;;0.45;;
32297;SDS011;18782;48.984;8.548;2022-08-01T14:29:03;1.35;;;0.50;;
32297;SDS011;18782;48.984;8.548;2022-08-01T14:31:31;0.98;;;0.57;;
32297;SDS011;18782;48.984;8.548;2022-08-01T14:34:01;1.73;;;0.50;;
32297;SDS011;18782;48.984;8.548;2022-08-01T14:36:29;2.80;;;0.68;;
32297;SDS011;18782;48.984;8.548;2022-08-01T14:39:03;1.85;;;0.45;;
32297;SDS011;18782;48.984;8.548;2022-08-01T14:41:32;0.82;;;0.40;;
32297;SDS011;18782;48.984;8.548;2022-08-01T14:44:00;1.17;;;0.50;;
32297;SDS011;18782;48.984;8.548;2022-08-01T14:46:27;1.58;;;0.57;;
32297;SDS011;18782;48.984;8.548;2022-08-01T14:49:00;1.08;;;0.50;;
32297;SDS011;18782;48.984;8.548;2022-08-01T14:51:28;1.00;;;0.47;;
32297;SDS011;18782;48.984;8.548;2022-08-01T14:53:59;0.75;;;0.40;;
32297;SDS011;18782;48.984;8.548;2022-08-01T14:56:29;0.98;;;0.40;;
32297;SDS011;18782;48.984;8.548;2022-08-01T14:58:56;0.55;;;0.40;;
32297;SDS011;18782;48.984;8.548;2022-08-01T15:01:24;1.55;;;0.40;;
32297;SDS011;18782;48.984;8.548;2022-08-01T15:03:52;0.93;;;0.50;;
32297;SDS011;18782;48.984;8.548;2022-08-01T15:06:21;1.08;;;0.50;;
32297;SDS011;18782;48.984;8.548;2022-08-01T15:08:49;0.70;;;0.40;;
32297;SDS011;18782;48.984;8.548;2022-08-01T15:11:16;0.60;;;0.40;;
32297;SDS011;18782;48.984;8.548;2022-08-01T15:13:44;1.58;;;0.77;;
32297;SDS011;18782;48.984;8.548;2022-08-01T15:16:11;1.52;;;0.60;;
32297;SDS011;18782;48.984;8.548;2022-08-01T15:18:39;1.58;;;0.47;;
32297;SDS011;18782;48.984;8.548;2022-08-01T15:21:08;1.00;;;0.47;;
32297;SDS011;18782;48.984;8.548;2022-08-01T15:23:51;0.75;;;0.50;;